createdAt,value
2018-07-12T00:00:39.306Z,0.00
2018-07-12T00:01:39.295Z,0.00
2018-07-12T00:02:39.284Z,0.00
2018-07-12T00:03:39.272Z,0.00
2018-07-12T00:04:39.263Z,0.00
2018-07-12T00:05:39.274Z,0.00
2018-07-12T00:06:39.240Z,0.00
2018-07-12T00:07:39.230Z,0.00
2018-07-12T00:08:39.220Z,0.00
2018-07-12T00:09:39.208Z,0.00
2018-07-12T00:10:39.218Z,0.00
2018-07-12T00:11:39.184Z,0.00
2018-07-12T00:12:39.173Z,0.00
2018-07-12T00:13:39.161Z,0.00
2018-07-12T00:14:39.152Z,0.00
2018-07-12T00:15:39.165Z,0.00
2018-07-12T00:16:39.128Z,0.00
2018-07-12T00:17:39.120Z,0.00
2018-07-12T00:18:39.106Z,0.00
2018-07-12T00:19:39.097Z,0.00
2018-07-12T00:20:39.107Z,0.00
2018-07-12T00:21:39.074Z,0.00
2018-07-12T00:22:39.062Z,0.00
2018-07-12T00:23:39.051Z,0.00
2018-07-12T00:24:39.041Z,0.00
2018-07-12T00:25:39.052Z,0.00
2018-07-12T00:26:39.017Z,0.00
2018-07-12T00:27:39.007Z,0.00
2018-07-12T00:28:38.996Z,0.00
2018-07-12T00:29:38.984Z,0.00
2018-07-12T00:30:38.997Z,0.00
2018-07-12T00:31:38.962Z,0.00
2018-07-12T00:32:38.951Z,0.00
2018-07-12T00:33:39.000Z,0.00
2018-07-12T00:34:38.928Z,0.00
2018-07-12T00:35:38.941Z,0.00
2018-07-12T00:36:38.907Z,0.00
2018-07-12T00:37:38.896Z,0.00
2018-07-12T00:38:38.885Z,0.00
2018-07-12T00:39:38.873Z,0.00
2018-07-12T00:40:38.887Z,0.00
2018-07-12T00:41:38.852Z,0.00
2018-07-12T00:42:38.844Z,0.00
2018-07-12T00:43:38.830Z,0.00
2018-07-12T00:44:38.819Z,0.00
2018-07-12T00:45:38.831Z,0.00
2018-07-12T00:46:38.797Z,0.00
2018-07-12T00:47:38.786Z,0.00
2018-07-12T00:48:38.776Z,0.00
2018-07-12T00:49:38.764Z,0.00
2018-07-12T00:50:38.775Z,0.00
2018-07-12T00:51:38.748Z,0.00
2018-07-12T00:52:38.735Z,0.00
2018-07-12T00:53:38.719Z,0.00
2018-07-12T00:54:38.708Z,0.00
2018-07-12T00:55:38.720Z,0.00
2018-07-12T00:56:38.687Z,0.00
2018-07-12T00:57:38.675Z,0.00
2018-07-12T00:58:38.664Z,0.00
2018-07-12T00:59:38.654Z,0.00
2018-07-12T01:00:38.666Z,0.00
2018-07-12T01:01:38.647Z,0.00
2018-07-12T01:02:38.620Z,0.00
2018-07-12T01:03:38.609Z,0.00
2018-07-12T01:04:38.599Z,0.00
2018-07-12T01:05:38.611Z,0.00
2018-07-12T01:06:38.576Z,0.00
2018-07-12T01:07:38.565Z,0.00
2018-07-12T01:08:38.555Z,0.00
2018-07-12T01:09:38.545Z,0.00
2018-07-12T01:10:38.555Z,0.00
2018-07-12T01:11:38.522Z,0.00
2018-07-12T01:12:38.517Z,0.00
2018-07-12T01:13:38.499Z,0.00
2018-07-12T01:14:38.488Z,0.00
2018-07-12T01:15:38.500Z,0.00
2018-07-12T01:16:38.468Z,0.00
2018-07-12T01:17:38.454Z,0.00
2018-07-12T01:18:38.445Z,0.00
2018-07-12T01:19:38.434Z,0.00
2018-07-12T01:20:38.449Z,0.00
2018-07-12T01:21:38.410Z,0.00
2018-07-12T01:22:38.399Z,0.00
2018-07-12T01:23:38.388Z,0.00
2018-07-12T01:24:38.378Z,0.00
2018-07-12T01:25:38.389Z,0.00
2018-07-12T01:26:38.355Z,0.00
2018-07-12T01:27:38.346Z,0.00
2018-07-12T01:28:38.335Z,0.00
2018-07-12T01:29:38.322Z,0.00
2018-07-12T01:30:38.335Z,0.00
2018-07-12T01:31:38.300Z,0.00
2018-07-12T01:32:38.289Z,0.00
2018-07-12T01:33:38.278Z,0.00
2018-07-12T01:34:38.266Z,0.00
2018-07-12T01:35:38.277Z,0.00
2018-07-12T01:36:38.245Z,0.00
2018-07-12T01:37:38.232Z,0.00
2018-07-12T01:38:38.221Z,0.00
2018-07-12T01:39:38.211Z,0.00
2018-07-12T01:40:38.224Z,0.00
2018-07-12T01:41:38.188Z,0.00
2018-07-12T01:42:38.177Z,0.00
2018-07-12T01:43:38.165Z,0.00
2018-07-12T01:44:38.155Z,0.00
2018-07-12T01:45:38.151Z,0.00
2018-07-12T01:46:38.156Z,0.00
2018-07-12T01:47:38.121Z,0.00
2018-07-12T01:48:38.110Z,0.00
2018-07-12T01:49:38.099Z,0.00
2018-07-12T01:50:38.090Z,0.00
2018-07-12T01:51:38.101Z,0.00
2018-07-12T01:52:38.065Z,0.00
2018-07-12T01:53:38.054Z,0.00
2018-07-12T01:54:38.045Z,0.00
2018-07-12T01:55:38.034Z,0.00
2018-07-12T01:56:38.045Z,0.00
2018-07-12T01:57:38.010Z,0.00
2018-07-12T01:58:37.998Z,0.00
2018-07-12T01:59:37.988Z,0.00
2018-07-12T02:00:38.048Z,0.00
2018-07-12T02:01:37.989Z,0.00
2018-07-12T02:02:37.954Z,0.00
2018-07-12T02:03:37.944Z,0.00
2018-07-12T02:04:37.931Z,0.00
2018-07-12T02:05:37.922Z,0.00
2018-07-12T02:06:37.934Z,0.00
2018-07-12T02:07:37.898Z,0.00
2018-07-12T02:08:37.886Z,0.00
2018-07-12T02:09:37.875Z,0.00
2018-07-12T02:10:37.864Z,0.00
2018-07-12T02:11:37.905Z,0.00
2018-07-12T02:12:37.843Z,0.00
2018-07-12T02:13:37.855Z,0.00
2018-07-12T02:14:37.820Z,0.00
2018-07-12T02:15:37.809Z,0.00
2018-07-12T02:16:37.821Z,0.00
2018-07-12T02:17:37.787Z,0.00
2018-07-12T02:18:37.790Z,0.00
2018-07-12T02:19:37.769Z,0.00
2018-07-12T02:20:37.788Z,0.00
2018-07-12T02:21:37.767Z,0.00
2018-07-12T02:22:37.777Z,0.00
2018-07-12T02:23:37.720Z,0.00
2018-07-12T02:24:37.717Z,0.00
2018-07-12T02:25:37.697Z,0.00
2018-07-12T02:26:37.712Z,0.00
2018-07-12T02:27:37.711Z,0.00
2018-07-12T02:28:37.675Z,0.00
2018-07-12T02:29:37.654Z,0.00
2018-07-12T02:30:37.656Z,0.00
2018-07-12T02:31:37.656Z,0.00
2018-07-12T02:32:37.622Z,0.00
2018-07-12T02:33:37.611Z,0.00
2018-07-12T02:34:37.598Z,0.00
2018-07-12T02:35:37.590Z,0.00
2018-07-12T02:36:37.600Z,0.00
2018-07-12T02:37:37.567Z,0.00
2018-07-12T02:38:37.554Z,0.00
2018-07-12T02:39:37.545Z,0.00
2018-07-12T02:40:37.533Z,0.00
2018-07-12T02:41:37.544Z,0.00
2018-07-12T02:42:37.512Z,0.00
2018-07-12T02:43:37.499Z,0.00
2018-07-12T02:44:37.487Z,0.00
2018-07-12T02:45:37.476Z,0.00
2018-07-12T02:46:37.488Z,0.00
2018-07-12T02:47:37.455Z,0.00
2018-07-12T02:48:37.444Z,0.00
2018-07-12T02:49:37.432Z,0.00
2018-07-12T02:50:37.421Z,0.00
2018-07-12T02:51:37.434Z,0.00
2018-07-12T02:52:37.398Z,0.00
2018-07-12T02:53:37.387Z,0.00
2018-07-12T02:54:37.379Z,0.00
2018-07-12T02:55:37.366Z,0.00
2018-07-12T02:56:37.377Z,0.00
2018-07-12T02:57:37.344Z,0.00
2018-07-12T02:58:37.332Z,0.00
2018-07-12T02:59:37.324Z,0.00
2018-07-12T03:00:37.310Z,0.00
2018-07-12T03:01:37.322Z,0.00
2018-07-12T03:02:37.287Z,0.00
2018-07-12T03:03:37.278Z,0.00
2018-07-12T03:04:37.265Z,0.00
2018-07-12T03:05:37.255Z,0.00
2018-07-12T03:06:37.268Z,0.00
2018-07-12T03:07:37.234Z,0.00
2018-07-12T03:08:37.221Z,0.00
2018-07-12T03:09:37.209Z,0.00
2018-07-12T03:10:37.199Z,0.00
2018-07-12T03:11:37.212Z,0.00
2018-07-12T03:12:37.177Z,0.00
2018-07-12T03:13:37.166Z,0.00
2018-07-12T03:14:37.156Z,0.00
2018-07-12T03:15:37.146Z,0.00
2018-07-12T03:16:37.156Z,0.00
2018-07-12T03:17:37.122Z,0.00
2018-07-12T03:18:37.111Z,0.00
2018-07-12T03:19:37.100Z,0.00
2018-07-12T03:20:37.090Z,0.00
2018-07-12T03:21:37.101Z,0.00
2018-07-12T03:22:37.067Z,0.00
2018-07-12T03:23:37.056Z,0.00
2018-07-12T03:24:37.046Z,0.00
2018-07-12T03:25:37.033Z,0.00
2018-07-12T03:26:37.048Z,0.00
2018-07-12T03:27:37.012Z,0.00
2018-07-12T03:28:37.013Z,0.00
2018-07-12T03:29:36.989Z,0.00
2018-07-12T03:30:36.979Z,0.00
2018-07-12T03:31:36.971Z,0.00
2018-07-12T03:32:36.979Z,0.00
2018-07-12T03:33:36.945Z,0.00
2018-07-12T03:34:36.934Z,0.00
2018-07-12T03:35:36.924Z,0.00
2018-07-12T03:36:36.935Z,0.00
2018-07-12T03:37:36.901Z,0.00
2018-07-12T03:38:36.890Z,0.00
2018-07-12T03:39:36.878Z,0.00
2018-07-12T03:40:36.955Z,0.00
2018-07-12T03:41:36.858Z,0.00
2018-07-12T03:42:36.870Z,0.00
2018-07-12T03:43:36.835Z,0.00
2018-07-12T03:44:36.823Z,0.00
2018-07-12T03:45:36.812Z,0.00
2018-07-12T03:46:36.803Z,0.00
2018-07-12T03:47:36.814Z,0.00
2018-07-12T03:48:36.780Z,0.00
2018-07-12T03:49:36.768Z,0.00
2018-07-12T03:50:36.760Z,0.00
2018-07-12T03:51:36.747Z,0.00
2018-07-12T03:52:36.759Z,0.00
2018-07-12T03:53:36.723Z,0.00
2018-07-12T03:54:36.715Z,0.00
2018-07-12T03:55:36.701Z,0.00
2018-07-12T03:56:36.690Z,0.00
2018-07-12T03:57:36.702Z,0.00
2018-07-12T03:58:36.668Z,0.00
2018-07-12T03:59:36.656Z,0.00
2018-07-12T04:00:36.647Z,0.00
2018-07-12T04:01:36.634Z,0.00
2018-07-12T04:02:36.649Z,0.00
2018-07-12T04:03:36.691Z,0.00
2018-07-12T04:04:36.602Z,0.00
2018-07-12T04:05:36.590Z,0.00
2018-07-12T04:06:36.579Z,0.00
2018-07-12T04:07:36.590Z,0.00
2018-07-12T04:08:36.556Z,0.00
2018-07-12T04:09:36.547Z,0.00
2018-07-12T04:10:36.533Z,0.00
2018-07-12T04:11:36.524Z,0.00
2018-07-12T04:12:36.535Z,0.00
2018-07-12T04:13:36.500Z,0.00
2018-07-12T04:14:36.490Z,0.00
2018-07-12T04:15:36.479Z,0.00
2018-07-12T04:16:36.467Z,0.00
2018-07-12T04:17:36.480Z,0.00
2018-07-12T04:18:36.447Z,0.00
2018-07-12T04:19:36.432Z,0.00
2018-07-12T04:20:36.421Z,0.00
2018-07-12T04:21:36.412Z,0.00
2018-07-12T04:22:36.422Z,0.00
2018-07-12T04:23:36.388Z,0.00
2018-07-12T04:24:36.377Z,0.00
2018-07-12T04:25:36.366Z,0.00
2018-07-12T04:26:36.354Z,0.00
2018-07-12T04:27:36.368Z,0.00
2018-07-12T04:28:36.333Z,0.00
2018-07-12T04:29:36.321Z,0.00
2018-07-12T04:30:36.310Z,0.00
2018-07-12T04:31:36.299Z,0.00
2018-07-12T04:32:36.311Z,0.00
2018-07-12T04:33:36.277Z,0.00
2018-07-12T04:34:36.309Z,0.00
2018-07-12T04:35:36.254Z,0.00
2018-07-12T04:36:36.245Z,0.00
2018-07-12T04:37:36.254Z,0.00
2018-07-12T04:38:36.221Z,0.00
2018-07-12T04:39:36.210Z,0.00
2018-07-12T04:40:36.199Z,0.00
2018-07-12T04:41:36.187Z,0.00
2018-07-12T04:42:36.200Z,0.00
2018-07-12T04:43:36.164Z,0.00
2018-07-12T04:44:36.158Z,0.00
2018-07-12T04:45:36.144Z,0.00
2018-07-12T04:46:36.138Z,0.00
2018-07-12T04:47:36.143Z,0.00
2018-07-12T04:48:36.108Z,0.00
2018-07-12T04:49:36.097Z,0.00
2018-07-12T04:50:36.087Z,0.00
2018-07-12T04:51:36.079Z,0.00
2018-07-12T04:52:36.088Z,0.00
2018-07-12T04:53:36.053Z,0.00
2018-07-12T04:54:36.042Z,0.00
2018-07-12T04:55:36.030Z,0.00
2018-07-12T04:56:36.022Z,0.00
2018-07-12T04:57:36.031Z,0.00
2018-07-12T04:58:36.072Z,0.00
2018-07-12T04:59:35.986Z,0.00
2018-07-12T05:00:35.975Z,0.00
2018-07-12T05:01:35.964Z,0.00
2018-07-12T05:02:35.976Z,0.00
2018-07-12T05:03:35.944Z,0.00
2018-07-12T05:04:35.931Z,0.00
2018-07-12T05:05:35.932Z,0.00
2018-07-12T05:06:35.908Z,0.00
2018-07-12T05:07:35.899Z,0.00
2018-07-12T05:08:35.911Z,0.00
2018-07-12T05:09:35.878Z,0.00
2018-07-12T05:10:35.867Z,0.00
2018-07-12T05:11:35.854Z,0.00
2018-07-12T05:12:35.866Z,0.00
2018-07-12T05:13:35.830Z,0.00
2018-07-12T05:14:35.823Z,0.00
2018-07-12T05:15:35.809Z,0.00
2018-07-12T05:16:35.797Z,0.00
2018-07-12T05:17:35.789Z,0.00
2018-07-12T05:18:35.800Z,0.00
2018-07-12T05:19:35.764Z,0.00
2018-07-12T05:20:35.754Z,0.00
2018-07-12T05:21:35.746Z,0.00
2018-07-12T05:22:35.733Z,0.00
2018-07-12T05:23:35.744Z,0.00
2018-07-12T05:24:35.709Z,0.00
2018-07-12T05:25:35.699Z,0.00
2018-07-12T05:26:35.687Z,0.00
2018-07-12T05:27:35.679Z,0.00
2018-07-12T05:28:35.688Z,0.00
2018-07-12T05:29:35.654Z,0.00
2018-07-12T05:30:35.644Z,0.00
2018-07-12T05:31:35.632Z,0.00
2018-07-12T05:32:35.623Z,0.00
2018-07-12T05:33:35.637Z,0.00
2018-07-12T05:34:35.598Z,0.00
2018-07-12T05:35:35.588Z,0.00
2018-07-12T05:36:35.576Z,0.00
2018-07-12T05:37:35.566Z,0.00
2018-07-12T05:38:35.580Z,0.00
2018-07-12T05:39:35.545Z,0.00
2018-07-12T05:40:35.535Z,0.00
2018-07-12T05:41:35.522Z,0.00
2018-07-12T05:42:35.511Z,0.00
2018-07-12T05:43:35.523Z,0.00
2018-07-12T05:44:35.488Z,0.00
2018-07-12T05:45:35.481Z,0.00
2018-07-12T05:46:35.493Z,0.00
2018-07-12T05:47:35.455Z,0.00
2018-07-12T05:48:35.468Z,0.00
2018-07-12T05:49:35.435Z,0.00
2018-07-12T05:50:35.423Z,0.00
2018-07-12T05:51:35.411Z,0.00
2018-07-12T05:52:35.400Z,0.00
2018-07-12T05:53:35.413Z,0.00
2018-07-12T05:54:35.385Z,0.00
2018-07-12T05:55:35.368Z,0.00
2018-07-12T05:56:35.357Z,0.00
2018-07-12T05:57:35.392Z,0.00
2018-07-12T05:58:35.360Z,0.00
2018-07-12T05:59:35.322Z,0.00
2018-07-12T06:00:35.312Z,0.00
2018-07-12T06:01:35.300Z,0.00
2018-07-12T06:02:35.290Z,0.00
2018-07-12T06:03:35.302Z,0.00
2018-07-12T06:04:35.268Z,0.00
2018-07-12T06:05:35.256Z,0.00
2018-07-12T06:06:35.290Z,0.00
2018-07-12T06:07:35.234Z,0.00
2018-07-12T06:08:35.248Z,0.00
2018-07-12T06:09:35.218Z,0.00
2018-07-12T06:10:35.202Z,0.00
2018-07-12T06:11:35.191Z,0.00
2018-07-12T06:12:35.180Z,0.00
2018-07-12T06:13:35.191Z,0.00
2018-07-12T06:14:35.160Z,0.00
2018-07-12T06:15:35.150Z,0.00
2018-07-12T06:16:35.137Z,0.00
2018-07-12T06:17:35.125Z,0.00
2018-07-12T06:18:35.139Z,0.00
2018-07-12T06:19:35.103Z,0.00
2018-07-12T06:20:35.091Z,0.00
2018-07-12T06:21:35.080Z,0.00
2018-07-12T06:22:35.072Z,0.00
2018-07-12T06:23:35.081Z,0.00
2018-07-12T06:24:35.094Z,0.00
2018-07-12T06:25:35.038Z,0.00
2018-07-12T06:26:35.072Z,0.00
2018-07-12T06:27:35.018Z,0.00
2018-07-12T06:28:35.026Z,0.00
2018-07-12T06:29:34.992Z,0.00
2018-07-12T06:30:34.980Z,0.00
2018-07-12T06:31:34.969Z,0.00
2018-07-12T06:32:34.958Z,0.00
2018-07-12T06:33:34.971Z,0.00
2018-07-12T06:34:34.936Z,0.00
2018-07-12T06:35:34.924Z,0.00
2018-07-12T06:36:34.913Z,0.00
2018-07-12T06:37:34.903Z,0.00
2018-07-12T06:38:34.915Z,0.00
2018-07-12T06:39:34.880Z,0.00
2018-07-12T06:40:34.869Z,0.00
2018-07-12T06:41:34.858Z,0.00
2018-07-12T06:42:34.872Z,0.00
2018-07-12T06:43:34.861Z,0.00
2018-07-12T06:44:34.824Z,0.00
2018-07-12T06:45:34.814Z,0.00
2018-07-12T06:46:34.803Z,0.00
2018-07-12T06:47:34.791Z,0.00
2018-07-12T06:48:34.804Z,0.00
2018-07-12T06:49:34.770Z,0.00
2018-07-12T06:50:34.757Z,0.00
2018-07-12T06:51:34.749Z,0.00
2018-07-12T06:52:34.735Z,0.00
2018-07-12T06:53:34.727Z,0.00
2018-07-12T06:54:34.736Z,0.00
2018-07-12T06:55:34.703Z,0.00
2018-07-12T06:56:34.827Z,112.50
2018-07-12T06:57:34.727Z,286.88
2018-07-12T06:58:34.708Z,275.62
2018-07-12T06:59:34.685Z,264.38
2018-07-12T07:00:34.710Z,264.38
2018-07-12T07:01:34.653Z,270.00
2018-07-12T07:02:34.627Z,264.38
2018-07-12T07:03:34.620Z,253.12
2018-07-12T07:04:34.632Z,247.50
2018-07-12T07:05:34.606Z,236.25
2018-07-12T07:06:34.583Z,236.25
2018-07-12T07:07:34.579Z,241.88
2018-07-12T07:08:34.590Z,247.50
2018-07-12T07:09:34.619Z,247.50
2018-07-12T07:10:34.539Z,241.88
2018-07-12T07:11:34.528Z,236.25
2018-07-12T07:12:34.517Z,236.25
2018-07-12T07:13:34.524Z,241.88
2018-07-12T07:14:34.518Z,253.12
2018-07-12T07:15:34.486Z,236.25
2018-07-12T07:16:34.473Z,185.62
2018-07-12T07:17:34.564Z,157.50
2018-07-12T07:18:34.451Z,163.12
2018-07-12T07:19:34.480Z,185.62
2018-07-12T07:20:34.435Z,213.75
2018-07-12T07:21:34.420Z,241.88
2018-07-12T07:22:34.406Z,264.38
2018-07-12T07:23:34.395Z,258.75
2018-07-12T07:24:34.406Z,230.62
2018-07-12T07:25:34.382Z,213.75
2018-07-12T07:26:34.371Z,225.00
2018-07-12T07:27:34.354Z,247.50
2018-07-12T07:28:34.348Z,270.00
2018-07-12T07:29:34.415Z,309.38
2018-07-12T07:30:34.330Z,371.25
2018-07-12T07:31:34.310Z,393.75
2018-07-12T07:32:34.315Z,360.00
2018-07-12T07:33:34.284Z,309.38
2018-07-12T07:34:34.295Z,258.75
2018-07-12T07:35:34.336Z,230.62
2018-07-12T07:36:34.343Z,213.75
2018-07-12T07:37:34.242Z,196.88
2018-07-12T07:38:34.268Z,180.00
2018-07-12T07:39:34.277Z,157.50
2018-07-12T07:40:34.206Z,163.12
2018-07-12T07:41:34.196Z,191.25
2018-07-12T07:42:34.248Z,219.38
2018-07-12T07:43:34.178Z,241.88
2018-07-12T07:44:34.185Z,230.62
2018-07-12T07:45:34.156Z,225.00
2018-07-12T07:46:34.156Z,236.25
2018-07-12T07:47:34.131Z,253.12
2018-07-12T07:48:34.120Z,270.00
2018-07-12T07:49:34.131Z,275.62
2018-07-12T07:50:34.108Z,270.00
2018-07-12T07:51:34.085Z,247.50
2018-07-12T07:52:34.092Z,236.25
2018-07-12T07:53:34.069Z,225.00
2018-07-12T07:54:34.075Z,230.62
2018-07-12T07:55:34.045Z,258.75
2018-07-12T07:56:34.030Z,315.00
2018-07-12T07:57:34.018Z,348.75
2018-07-12T07:58:34.046Z,360.00
2018-07-12T07:59:34.019Z,388.12
2018-07-12T08:00:34.012Z,382.50
2018-07-12T08:01:34.024Z,376.88
2018-07-12T08:02:34.052Z,343.12
2018-07-12T08:03:33.953Z,343.12
2018-07-12T08:04:33.981Z,360.00
2018-07-12T08:05:33.938Z,382.50
2018-07-12T08:06:33.918Z,399.38
2018-07-12T08:07:33.908Z,399.38
2018-07-12T08:08:33.908Z,388.12
2018-07-12T08:09:33.941Z,371.25
2018-07-12T08:10:33.874Z,371.25
2018-07-12T08:11:33.879Z,382.50
2018-07-12T08:12:33.852Z,405.00
2018-07-12T08:13:33.845Z,405.00
2018-07-12T08:14:33.871Z,427.50
2018-07-12T08:15:33.815Z,472.50
2018-07-12T08:16:33.809Z,483.75
2018-07-12T08:17:33.795Z,478.12
2018-07-12T08:18:33.798Z,461.25
2018-07-12T08:19:33.895Z,444.38
2018-07-12T08:20:33.806Z,427.50
2018-07-12T08:21:33.748Z,427.50
2018-07-12T08:22:33.746Z,405.00
2018-07-12T08:23:33.778Z,399.38
2018-07-12T08:24:33.739Z,405.00
2018-07-12T08:25:33.704Z,427.50
2018-07-12T08:26:33.709Z,444.38
2018-07-12T08:27:33.684Z,450.00
2018-07-12T08:28:33.670Z,455.62
2018-07-12T08:29:33.691Z,455.62
2018-07-12T08:30:33.660Z,483.75
2018-07-12T08:31:33.652Z,466.88
2018-07-12T08:32:33.638Z,438.75
2018-07-12T08:33:33.615Z,433.12
2018-07-12T08:34:33.622Z,466.88
2018-07-12T08:35:33.616Z,500.62
2018-07-12T08:36:33.582Z,523.12
2018-07-12T08:37:33.573Z,489.38
2018-07-12T08:38:33.565Z,489.38
2018-07-12T08:39:33.584Z,478.12
2018-07-12T08:40:33.544Z,461.25
2018-07-12T08:41:33.528Z,472.50
2018-07-12T08:42:33.730Z,455.62
2018-07-12T08:43:33.506Z,427.50
2018-07-12T08:44:33.495Z,399.38
2018-07-12T08:45:33.513Z,382.50
2018-07-12T08:46:33.484Z,382.50
2018-07-12T08:47:33.488Z,410.62
2018-07-12T08:48:33.457Z,444.38
2018-07-12T08:49:33.444Z,455.62
2018-07-12T08:50:33.457Z,461.25
2018-07-12T08:51:33.427Z,461.25
2018-07-12T08:52:33.407Z,472.50
2018-07-12T08:53:33.410Z,489.38
2018-07-12T08:54:33.457Z,506.25
2018-07-12T08:55:33.398Z,523.12
2018-07-12T08:56:33.366Z,528.75
2018-07-12T08:57:33.350Z,326.25
2018-07-12T08:58:33.343Z,326.25
2018-07-12T08:59:33.344Z,556.88
2018-07-12T09:00:33.341Z,534.38
2018-07-12T09:01:33.310Z,438.75
2018-07-12T09:02:33.333Z,405.00
2018-07-12T09:03:33.324Z,438.75
2018-07-12T09:04:33.303Z,376.88
2018-07-12T09:05:33.294Z,371.25
2018-07-12T09:06:33.251Z,416.25
2018-07-12T09:07:33.245Z,433.12
2018-07-12T09:08:33.232Z,450.00
2018-07-12T09:09:33.225Z,489.38
2018-07-12T09:10:33.273Z,562.50
2018-07-12T09:11:33.216Z,618.75
2018-07-12T09:12:33.186Z,652.50
2018-07-12T09:13:33.175Z,646.88
2018-07-12T09:14:33.194Z,590.62
2018-07-12T09:15:33.178Z,556.88
2018-07-12T09:16:33.155Z,534.38
2018-07-12T09:17:33.195Z,523.12
2018-07-12T09:18:33.120Z,528.75
2018-07-12T09:19:33.132Z,528.75
2018-07-12T09:20:33.120Z,517.50
2018-07-12T09:21:33.087Z,528.75
2018-07-12T09:22:33.082Z,540.00
2018-07-12T09:23:33.068Z,545.62
2018-07-12T09:24:33.057Z,545.62
2018-07-12T09:25:33.164Z,540.00
2018-07-12T09:26:33.033Z,545.62
2018-07-12T09:27:33.032Z,573.75
2018-07-12T09:28:33.019Z,573.75
2018-07-12T09:29:32.998Z,551.25
2018-07-12T09:30:33.020Z,551.25
2018-07-12T09:31:32.976Z,545.62
2018-07-12T09:32:32.966Z,545.62
2018-07-12T09:33:32.956Z,511.88
2018-07-12T09:34:32.947Z,466.88
2018-07-12T09:35:33.000Z,427.50
2018-07-12T09:36:32.941Z,433.12
2018-07-12T09:37:32.917Z,461.25
2018-07-12T09:38:32.899Z,495.00
2018-07-12T09:39:32.894Z,523.12
2018-07-12T09:40:32.959Z,590.62
2018-07-12T09:41:32.887Z,646.88
2018-07-12T09:42:32.856Z,686.25
2018-07-12T09:43:32.845Z,646.88
2018-07-12T09:44:32.836Z,534.38
2018-07-12T09:45:32.901Z,461.25
2018-07-12T09:46:32.842Z,388.12
2018-07-12T09:47:32.897Z,320.62
2018-07-12T09:48:32.790Z,247.50
2018-07-12T09:49:33.875Z,225.00
2018-07-12T09:50:32.791Z,213.75
2018-07-12T09:51:32.758Z,225.00
2018-07-12T09:52:32.746Z,236.25
2018-07-12T09:53:32.734Z,253.12
2018-07-12T09:54:32.727Z,286.88
2018-07-12T09:55:32.804Z,326.25
2018-07-12T09:56:32.765Z,376.88
2018-07-12T09:57:32.695Z,438.75
2018-07-12T09:58:32.696Z,495.00
2018-07-12T09:59:32.690Z,579.38
2018-07-12T10:00:32.736Z,613.12
2018-07-12T10:01:32.647Z,646.88
2018-07-12T10:02:32.635Z,618.75
2018-07-12T10:03:32.669Z,596.25
2018-07-12T10:04:32.614Z,568.12
2018-07-12T10:05:32.626Z,416.25
2018-07-12T10:06:32.592Z,376.88
2018-07-12T10:07:32.595Z,483.75
2018-07-12T10:08:32.569Z,500.62
2018-07-12T10:09:32.594Z,444.38
2018-07-12T10:10:32.579Z,444.38
2018-07-12T10:11:32.537Z,326.25
2018-07-12T10:12:32.530Z,455.62
2018-07-12T10:13:32.519Z,472.50
2018-07-12T10:14:32.504Z,511.88
2018-07-12T10:15:32.585Z,500.62
2018-07-12T10:16:32.565Z,500.62
2018-07-12T10:17:32.471Z,573.75
2018-07-12T10:18:32.459Z,607.50
2018-07-12T10:19:32.470Z,635.62
2018-07-12T10:20:32.518Z,725.62
2018-07-12T10:21:32.434Z,798.75
2018-07-12T10:22:32.416Z,804.38
2018-07-12T10:23:32.407Z,787.50
2018-07-12T10:24:32.400Z,753.75
2018-07-12T10:25:32.382Z,736.88
2018-07-12T10:26:32.394Z,725.62
2018-07-12T10:27:32.361Z,708.75
2018-07-12T10:28:32.351Z,675.00
2018-07-12T10:29:32.354Z,725.62
2018-07-12T10:30:32.360Z,742.50
2018-07-12T10:31:32.356Z,720.00
2018-07-12T10:32:32.306Z,714.38
2018-07-12T10:33:32.293Z,658.12
2018-07-12T10:34:32.292Z,613.12
2018-07-12T10:35:32.277Z,596.25
2018-07-12T10:36:32.311Z,568.12
2018-07-12T10:37:32.251Z,551.25
2018-07-12T10:38:32.240Z,534.38
2018-07-12T10:39:32.228Z,528.75
2018-07-12T10:40:32.217Z,596.25
2018-07-12T10:41:32.244Z,675.00
2018-07-12T10:42:32.203Z,731.25
2018-07-12T10:43:32.190Z,742.50
2018-07-12T10:44:32.219Z,736.88
2018-07-12T10:45:32.162Z,725.62
2018-07-12T10:46:32.215Z,686.25
2018-07-12T10:47:32.144Z,641.25
2018-07-12T10:48:32.136Z,568.12
2018-07-12T10:49:32.119Z,534.38
2018-07-12T10:50:32.129Z,523.12
2018-07-12T10:51:32.125Z,540.00
2018-07-12T10:52:32.088Z,573.75
2018-07-12T10:53:32.098Z,624.38
2018-07-12T10:54:32.067Z,646.88
2018-07-12T10:55:32.054Z,624.38
2018-07-12T10:56:32.070Z,601.88
2018-07-12T10:57:32.063Z,573.75
2018-07-12T10:58:32.031Z,556.88
2018-07-12T10:59:32.020Z,568.12
2018-07-12T11:00:32.011Z,624.38
2018-07-12T11:01:32.027Z,652.50
2018-07-12T11:02:31.981Z,669.38
2018-07-12T11:03:31.978Z,691.88
2018-07-12T11:04:31.975Z,770.62
2018-07-12T11:05:31.948Z,810.00
2018-07-12T11:06:31.963Z,871.88
2018-07-12T11:07:31.926Z,860.62
2018-07-12T11:08:31.924Z,877.50
2018-07-12T11:09:31.912Z,928.12
2018-07-12T11:10:32.080Z,900.00
2018-07-12T11:11:31.908Z,871.88
2018-07-12T11:12:31.879Z,798.75
2018-07-12T11:13:31.888Z,736.88
2018-07-12T11:14:31.851Z,720.00
2018-07-12T11:15:31.876Z,731.25
2018-07-12T11:16:31.864Z,793.12
2018-07-12T11:17:31.817Z,838.12
2018-07-12T11:18:31.810Z,804.38
2018-07-12T11:19:31.799Z,787.50
2018-07-12T11:20:31.783Z,798.75
2018-07-12T11:21:31.800Z,523.12
2018-07-12T11:22:31.762Z,405.00
2018-07-12T11:23:31.781Z,922.50
2018-07-12T11:24:31.739Z,905.62
2018-07-12T11:25:31.729Z,1018.12
2018-07-12T11:26:31.749Z,905.62
2018-07-12T11:27:31.712Z,967.50
2018-07-12T11:28:31.759Z,1023.75
2018-07-12T11:29:31.685Z,1136.25
2018-07-12T11:30:31.698Z,1141.88
2018-07-12T11:31:31.695Z,1147.50
2018-07-12T11:32:31.652Z,1035.00
2018-07-12T11:33:31.642Z,1091.25
2018-07-12T11:34:31.631Z,1051.88
2018-07-12T11:35:31.627Z,1001.25
2018-07-12T11:36:31.633Z,883.12
2018-07-12T11:37:31.656Z,765.00
2018-07-12T11:38:31.588Z,720.00
2018-07-12T11:39:31.612Z,708.75
2018-07-12T11:40:31.581Z,675.00
2018-07-12T11:41:31.581Z,635.62
2018-07-12T11:42:31.547Z,630.00
2018-07-12T11:43:31.540Z,630.00
2018-07-12T11:44:31.523Z,630.00
2018-07-12T11:45:31.525Z,635.62
2018-07-12T11:46:31.530Z,646.88
2018-07-12T11:47:31.500Z,652.50
2018-07-12T11:48:31.483Z,663.75
2018-07-12T11:49:31.470Z,675.00
2018-07-12T11:50:31.472Z,697.50
2018-07-12T11:51:31.481Z,770.62
2018-07-12T11:52:31.448Z,871.88
2018-07-12T11:53:31.431Z,1153.12
2018-07-12T11:54:31.416Z,1136.25
2018-07-12T11:55:31.409Z,1170.00
2018-07-12T11:56:31.420Z,1243.12
2018-07-12T11:57:31.387Z,1260.00
2018-07-12T11:58:31.378Z,1175.62
2018-07-12T11:59:31.366Z,1181.25
2018-07-12T12:00:31.355Z,1046.25
2018-07-12T12:01:31.373Z,1006.88
2018-07-12T12:02:31.361Z,1288.12
2018-07-12T12:03:31.321Z,1282.50
2018-07-12T12:04:31.315Z,1040.62
2018-07-12T12:05:31.320Z,1170.00
2018-07-12T12:06:31.293Z,776.25
2018-07-12T12:07:31.308Z,742.50
2018-07-12T12:08:31.270Z,590.62
2018-07-12T12:09:31.258Z,511.88
2018-07-12T12:10:31.249Z,483.75
2018-07-12T12:11:31.236Z,472.50
2018-07-12T12:12:31.246Z,478.12
2018-07-12T12:13:31.214Z,495.00
2018-07-12T12:14:31.224Z,489.38
2018-07-12T12:15:31.199Z,500.62
2018-07-12T12:16:31.182Z,523.12
2018-07-12T12:17:31.208Z,579.38
2018-07-12T12:18:31.158Z,1395.00
2018-07-12T12:19:31.169Z,2233.12
2018-07-12T12:20:31.135Z,1237.50
2018-07-12T12:21:31.127Z,1631.25
2018-07-12T12:22:31.149Z,1141.88
2018-07-12T12:23:31.104Z,2323.12
2018-07-12T12:24:31.099Z,2418.75
2018-07-12T12:25:31.086Z,1676.25
2018-07-12T12:26:31.073Z,1231.88
2018-07-12T12:27:31.148Z,1276.88
2018-07-12T12:28:31.061Z,1620.00
2018-07-12T12:29:31.042Z,2553.75
2018-07-12T12:30:31.036Z,2660.62
2018-07-12T12:31:31.022Z,2036.25
2018-07-12T12:32:31.035Z,2739.38
2018-07-12T12:33:31.056Z,1355.62
2018-07-12T12:34:30.994Z,2002.50
2018-07-12T12:35:30.981Z,1108.12
2018-07-12T12:36:30.969Z,1001.25
2018-07-12T12:37:30.985Z,956.25
2018-07-12T12:38:30.948Z,928.12
2018-07-12T12:39:30.941Z,1068.75
2018-07-12T12:40:30.929Z,748.12
2018-07-12T12:41:30.918Z,686.25
2018-07-12T12:42:30.933Z,675.00
2018-07-12T12:43:30.899Z,669.38
2018-07-12T12:44:30.888Z,675.00
2018-07-12T12:45:30.878Z,697.50
2018-07-12T12:46:30.884Z,781.88
2018-07-12T12:47:30.880Z,2058.75
2018-07-12T12:48:30.847Z,2626.88
2018-07-12T12:49:30.838Z,2863.12
2018-07-12T12:50:30.828Z,2908.12
2018-07-12T12:51:30.819Z,2756.25
2018-07-12T12:52:30.833Z,2806.88